sensor_id;sensor_type;location;lat;lon;timestamp;P1;durP1;ratioP1;P2;durP2;ratioP2
21168;SDS011;10742;51.816;8.662;2023-08-06T00:00:14;1999.90;;;999.90;;
21168;SDS011;10742;51.816;8.662;2023-08-06T00:03:17;1999.90;;;999.90;;
21168;SDS011;10742;51.816;8.662;2023-08-06T00:06:19;1999.90;;;999.90;;
21168;SDS011;10742;51.816;8.662;2023-08-06T00:09:22;1999.90;;;999.90;;
21168;SDS011;10742;51.816;8.662;2023-08-06T00:12:24;1999.90;;;999.90;;
21168;SDS011;10742;51.816;8.662;2023-08-06T00:15:27;1999.90;;;999.90;;
21168;SDS011;10742;51.816;8.662;2023-08-06T00:18:29;1999.90;;;999.90;;
21168;SDS011;10742;51.816;8.662;2023-08-06T00:21:32;1999.90;;;999.90;;
21168;SDS011;10742;51.816;8.662;2023-08-06T00:24:35;1999.90;;;999.90;;
21168;SDS011;10742;51.816;8.662;2023-08-06T00:27:37;1999.90;;;999.90;;
21168;SDS011;10742;51.816;8.662;2023-08-06T00:30:41;1999.90;;;999.90;;
21168;SDS011;10742;51.816;8.662;2023-08-06T00:33:44;1999.90;;;999.90;;
21168;SDS011;10742;51.816;8.662;2023-08-06T00:36:46;1999.90;;;999.90;;
21168;SDS011;10742;51.816;8.662;2023-08-06T00:39:49;1999.90;;;999.90;;
21168;SDS011;10742;51.816;8.662;2023-08-06T00:42:52;1999.90;;;999.90;;
21168;SDS011;10742;51.816;8.662;2023-08-06T00:45:54;1999.90;;;999.90;;
21168;SDS011;10742;51.816;8.662;2023-08-06T00:48:58;1999.90;;;999.90;;
21168;SDS011;10742;51.816;8.662;2023-08-06T00:52:02;1999.90;;;999.90;;
21168;SDS011;10742;51.816;8.662;2023-08-06T00:55:07;1999.90;;;999.90;;
21168;SDS011;10742;51.816;8.662;2023-08-06T00:58:10;1999.90;;;999.90;;
21168;SDS011;10742;51.816;8.662;2023-08-06T01:01:13;1999.90;;;999.90;;
21168;SDS011;10742;51.816;8.662;2023-08-06T01:04:15;1999.90;;;999.90;;
21168;SDS011;10742;51.816;8.662;2023-08-06T01:07:25;1999.90;;;999.90;;
21168;SDS011;10742;51.816;8.662;2023-08-06T01:13:50;1999.90;;;999.90;;
21168;SDS011;10742;51.816;8.662;2023-08-06T01:17:15;1999.90;;;999.90;;
21168;SDS011;10742;51.816;8.662;2023-08-06T01:20:18;1999.90;;;999.90;;
21168;SDS011;10742;51.816;8.662;2023-08-06T01:23:21;1999.90;;;999.90;;
21168;SDS011;10742;51.816;8.662;2023-08-06T01:30:02;1999.90;;;999.90;;
21168;SDS011;10742;51.816;8.662;2023-08-06T01:33:14;1999.90;;;999.90;;
21168;SDS011;10742;51.816;8.662;2023-08-06T01:36:21;1999.90;;;999.90;;
21168;SDS011;10742;51.816;8.662;2023-08-06T01:39:24;1999.90;;;999.90;;
21168;SDS011;10742;51.816;8.662;2023-08-06T01:42:27;1999.90;;;999.90;;
21168;SDS011;10742;51.816;8.662;2023-08-06T01:45:29;1999.90;;;999.90;;
21168;SDS011;10742;51.816;8.662;2023-08-06T01:48:32;1999.90;;;999.90;;
21168;SDS011;10742;51.816;8.662;2023-08-06T01:51:35;1999.90;;;999.90;;
21168;SDS011;10742;51.816;8.662;2023-08-06T01:54:37;1999.90;;;999.90;;
21168;SDS011;10742;51.816;8.662;2023-08-06T01:57:40;1999.90;;;999.90;;
21168;SDS011;10742;51.816;8.662;2023-08-06T02:00:43;1999.90;;;999.90;;
21168;SDS011;10742;51.816;8.662;2023-08-06T02:03:45;1999.90;;;999.90;;
21168;SDS011;10742;51.816;8.662;2023-08-06T02:06:48;1999.90;;;999.90;;
21168;SDS011;10742;51.816;8.662;2023-08-06T02:09:50;1999.90;;;999.90;;
21168;SDS011;10742;51.816;8.662;2023-08-06T02:12:54;1999.90;;;999.90;;
21168;SDS011;10742;51.816;8.662;2023-08-06T02:15:57;1999.90;;;999.90;;
21168;SDS011;10742;51.816;8.662;2023-08-06T02:18:59;1999.90;;;999.90;;
21168;SDS011;10742;51.816;8.662;2023-08-06T02:22:02;1999.90;;;999.90;;
21168;SDS011;10742;51.816;8.662;2023-08-06T02:25:04;1999.90;;;999.90;;
21168;SDS011;10742;51.816;8.662;2023-08-06T02:28:07;1999.90;;;999.90;;
21168;SDS011;10742;51.816;8.662;2023-08-06T02:31:10;1999.90;;;999.90;;
21168;SDS011;10742;51.816;8.662;2023-08-06T02:34:12;1999.90;;;999.90;;
21168;SDS011;10742;51.816;8.662;2023-08-06T02:37:15;1999.90;;;999.90;;
21168;SDS011;10742;51.816;8.662;2023-08-06T02:40:19;1999.90;;;999.90;;
21168;SDS011;10742;51.816;8.662;2023-08-06T02:43:22;1999.90;;;999.90;;
21168;SDS011;10742;51.816;8.662;2023-08-06T02:46:25;1999.90;;;999.90;;
21168;SDS011;10742;51.816;8.662;2023-08-06T02:49:28;1999.90;;;999.90;;
21168;SDS011;10742;51.816;8.662;2023-08-06T02:52:30;1999.90;;;999.90;;
21168;SDS011;10742;51.816;8.662;2023-08-06T02:55:33;1999.90;;;999.90;;
21168;SDS011;10742;51.816;8.662;2023-08-06T02:58:42;1999.90;;;999.90;;
21168;SDS011;10742;51.816;8.662;2023-08-06T03:01:54;1999.90;;;999.90;;
21168;SDS011;10742;51.816;8.662;2023-08-06T03:05:04;1999.90;;;999.90;;
21168;SDS011;10742;51.816;8.662;2023-08-06T03:08:11;1999.90;;;999.90;;
21168;SDS011;10742;51.816;8.662;2023-08-06T03:11:14;1999.90;;;999.90;;
21168;SDS011;10742;51.816;8.662;2023-08-06T03:14:17;1999.90;;;999.90;;
21168;SDS011;10742;51.816;8.662;2023-08-06T03:17:21;1999.90;;;999.90;;
21168;SDS011;10742;51.816;8.662;2023-08-06T03:20:24;1999.90;;;999.90;;
21168;SDS011;10742;51.816;8.662;2023-08-06T03:23:27;1999.90;;;999.90;;
21168;SDS011;10742;51.816;8.662;2023-08-06T03:26:30;1999.90;;;999.90;;
21168;SDS011;10742;51.816;8.662;2023-08-06T03:29:32;1999.90;;;999.90;;
21168;SDS011;10742;51.816;8.662;2023-08-06T03:32:36;1999.90;;;999.90;;
21168;SDS011;10742;51.816;8.662;2023-08-06T03:35:39;1999.90;;;999.90;;
21168;SDS011;10742;51.816;8.662;2023-08-06T03:38:42;1999.90;;;999.90;;
21168;SDS011;10742;51.816;8.662;2023-08-06T03:41:47;1999.90;;;999.90;;
21168;SDS011;10742;51.816;8.662;2023-08-06T03:44:50;1999.90;;;999.90;;
21168;SDS011;10742;51.816;8.662;2023-08-06T03:47:53;1999.90;;;999.90;;
21168;SDS011;10742;51.816;8.662;2023-08-06T03:50:56;1999.90;;;999.90;;
21168;SDS011;10742;51.816;8.662;2023-08-06T03:54:19;1999.90;;;999.90;;
21168;SDS011;10742;51.816;8.662;2023-08-06T03:57:41;1999.90;;;999.90;;
21168;SDS011;10742;51.816;8.662;2023-08-06T04:01:03;1999.90;;;999.90;;
21168;SDS011;10742;51.816;8.662;2023-08-06T04:04:36;1999.90;;;999.90;;
21168;SDS011;10742;51.816;8.662;2023-08-06T04:07:57;1999.90;;;999.90;;
21168;SDS011;10742;51.816;8.662;2023-08-06T04:11:18;1999.90;;;999.90;;
21168;SDS011;10742;51.816;8.662;2023-08-06T04:14:40;1999.90;;;999.90;;
21168;SDS011;10742;51.816;8.662;2023-08-06T04:18:01;1999.90;;;999.90;;
21168;SDS011;10742;51.816;8.662;2023-08-06T04:21:23;1999.90;;;999.90;;
21168;SDS011;10742;51.816;8.662;2023-08-06T04:24:44;1999.90;;;999.90;;
21168;SDS011;10742;51.816;8.662;2023-08-06T04:28:06;1999.90;;;999.90;;
21168;SDS011;10742;51.816;8.662;2023-08-06T04:31:28;1999.90;;;999.90;;
21168;SDS011;10742;51.816;8.662;2023-08-06T04:34:32;1999.90;;;999.90;;
21168;SDS011;10742;51.816;8.662;2023-08-06T04:37:35;1999.90;;;999.90;;
21168;SDS011;10742;51.816;8.662;2023-08-06T04:40:38;1999.90;;;999.90;;
21168;SDS011;10742;51.816;8.662;2023-08-06T04:43:41;1999.90;;;999.90;;
21168;SDS011;10742;51.816;8.662;2023-08-06T04:46:53;1999.90;;;999.90;;
21168;SDS011;10742;51.816;8.662;2023-08-06T04:50:16;1999.90;;;999.90;;
21168;SDS011;10742;51.816;8.662;2023-08-06T04:53:52;1999.90;;;999.90;;
21168;SDS011;10742;51.816;8.662;2023-08-06T04:57:12;1999.90;;;999.90;;
21168;SDS011;10742;51.816;8.662;2023-08-06T05:00:33;1999.90;;;999.90;;
21168;SDS011;10742;51.816;8.662;2023-08-06T05:03:43;1999.90;;;999.90;;
21168;SDS011;10742;51.816;8.662;2023-08-06T05:06:49;1999.90;;;999.90;;
21168;SDS011;10742;51.816;8.662;2023-08-06T05:09:54;1999.90;;;999.90;;
21168;SDS011;10742;51.816;8.662;2023-08-06T05:13:03;1999.90;;;999.90;;
21168;SDS011;10742;51.816;8.662;2023-08-06T05:16:10;1999.90;;;999.90;;
21168;SDS011;10742;51.816;8.662;2023-08-06T05:19:15;1999.90;;;999.90;;
21168;SDS011;10742;51.816;8.662;2023-08-06T05:22:18;1999.90;;;999.90;;
21168;SDS011;10742;51.816;8.662;2023-08-06T05:25:21;1999.90;;;999.90;;
21168;SDS011;10742;51.816;8.662;2023-08-06T05:28:23;1999.90;;;999.90;;
21168;SDS011;10742;51.816;8.662;2023-08-06T05:31:26;1999.90;;;999.90;;
21168;SDS011;10742;51.816;8.662;2023-08-06T05:34:31;1999.90;;;999.90;;
21168;SDS011;10742;51.816;8.662;2023-08-06T05:37:35;1999.90;;;999.90;;
21168;SDS011;10742;51.816;8.662;2023-08-06T05:40:38;1999.90;;;999.90;;
21168;SDS011;10742;51.816;8.662;2023-08-06T05:43:42;1999.90;;;999.90;;
21168;SDS011;10742;51.816;8.662;2023-08-06T05:46:49;1999.90;;;999.90;;
21168;SDS011;10742;51.816;8.662;2023-08-06T05:49:51;1999.90;;;999.90;;
21168;SDS011;10742;51.816;8.662;2023-08-06T05:52:54;1999.90;;;999.90;;
21168;SDS011;10742;51.816;8.662;2023-08-06T05:55:57;1999.90;;;999.90;;
21168;SDS011;10742;51.816;8.662;2023-08-06T05:58:59;1999.90;;;999.90;;
21168;SDS011;10742;51.816;8.662;2023-08-06T06:02:02;1999.90;;;999.90;;
21168;SDS011;10742;51.816;8.662;2023-08-06T06:05:05;1999.90;;;999.90;;
21168;SDS011;10742;51.816;8.662;2023-08-06T06:08:08;1999.90;;;999.90;;
21168;SDS011;10742;51.816;8.662;2023-08-06T06:11:10;1999.90;;;999.90;;
21168;SDS011;10742;51.816;8.662;2023-08-06T06:14:13;1999.90;;;999.90;;
21168;SDS011;10742;51.816;8.662;2023-08-06T06:17:16;1999.90;;;999.90;;
21168;SDS011;10742;51.816;8.662;2023-08-06T06:20:25;1999.90;;;999.90;;
21168;SDS011;10742;51.816;8.662;2023-08-06T06:23:29;1999.90;;;999.90;;
21168;SDS011;10742;51.816;8.662;2023-08-06T06:26:34;1999.90;;;999.90;;
21168;SDS011;10742;51.816;8.662;2023-08-06T06:29:38;1999.90;;;999.90;;
21168;SDS011;10742;51.816;8.662;2023-08-06T06:32:41;1999.90;;;999.90;;
21168;SDS011;10742;51.816;8.662;2023-08-06T06:35:46;1999.90;;;999.90;;
21168;SDS011;10742;51.816;8.662;2023-08-06T06:38:49;1999.90;;;999.90;;
21168;SDS011;10742;51.816;8.662;2023-08-06T06:41:52;1999.90;;;999.90;;
21168;SDS011;10742;51.816;8.662;2023-08-06T06:45:01;1999.90;;;999.90;;
21168;SDS011;10742;51.816;8.662;2023-08-06T06:48:07;1999.90;;;999.90;;
21168;SDS011;10742;51.816;8.662;2023-08-06T06:51:09;1999.90;;;999.90;;
21168;SDS011;10742;51.816;8.662;2023-08-06T06:54:12;1999.90;;;999.90;;
21168;SDS011;10742;51.816;8.662;2023-08-06T06:57:15;1999.90;;;999.90;;
21168;SDS011;10742;51.816;8.662;2023-08-06T07:00:17;1999.90;;;999.90;;
21168;SDS011;10742;51.816;8.662;2023-08-06T07:03:20;1999.90;;;999.90;;
21168;SDS011;10742;51.816;8.662;2023-08-06T07:06:23;1999.90;;;999.90;;
21168;SDS011;10742;51.816;8.662;2023-08-06T07:09:26;1999.90;;;999.90;;
21168;SDS011;10742;51.816;8.662;2023-08-06T07:12:28;1999.90;;;999.90;;
21168;SDS011;10742;51.816;8.662;2023-08-06T07:15:31;1999.90;;;999.90;;
21168;SDS011;10742;51.816;8.662;2023-08-06T07:18:34;1999.90;;;999.90;;
21168;SDS011;10742;51.816;8.662;2023-08-06T07:21:37;1999.90;;;999.90;;
21168;SDS011;10742;51.816;8.662;2023-08-06T07:24:39;1999.90;;;999.90;;
21168;SDS011;10742;51.816;8.662;2023-08-06T07:27:42;1999.90;;;999.90;;
21168;SDS011;10742;51.816;8.662;2023-08-06T07:30:45;1999.90;;;999.90;;
21168;SDS011;10742;51.816;8.662;2023-08-06T07:33:48;1999.90;;;999.90;;
21168;SDS011;10742;51.816;8.662;2023-08-06T07:36:51;1999.90;;;999.90;;
21168;SDS011;10742;51.816;8.662;2023-08-06T07:39:54;1999.90;;;999.90;;
21168;SDS011;10742;51.816;8.662;2023-08-06T07:42:57;1999.90;;;999.90;;
21168;SDS011;10742;51.816;8.662;2023-08-06T07:46:00;1999.90;;;999.90;;
21168;SDS011;10742;51.816;8.662;2023-08-06T07:49:03;1999.90;;;999.90;;
21168;SDS011;10742;51.816;8.662;2023-08-06T07:52:06;1999.90;;;999.90;;
21168;SDS011;10742;51.816;8.662;2023-08-06T07:55:09;1999.90;;;999.90;;
21168;SDS011;10742;51.816;8.662;2023-08-06T07:58:11;1999.90;;;999.90;;
21168;SDS011;10742;51.816;8.662;2023-08-06T08:01:14;1999.90;;;959.70;;
21168;SDS011;10742;51.816;8.662;2023-08-06T08:04:17;1999.90;;;999.90;;
21168;SDS011;10742;51.816;8.662;2023-08-06T08:07:20;1999.90;;;957.75;;
21168;SDS011;10742;51.816;8.662;2023-08-06T08:10:22;1999.90;;;835.65;;
21168;SDS011;10742;51.816;8.662;2023-08-06T08:13:25;1999.90;;;669.05;;
21168;SDS011;10742;51.816;8.662;2023-08-06T08:16:28;1620.15;;;398.02;;
21168;SDS011;10742;51.816;8.662;2023-08-06T08:19:30;1194.07;;;298.70;;
21168;SDS011;10742;51.816;8.662;2023-08-06T08:22:33;323.92;;;87.47;;
21168;SDS011;10742;51.816;8.662;2023-08-06T08:25:36;77.75;;;32.25;;
21168;SDS011;10742;51.816;8.662;2023-08-06T08:28:39;19.92;;;13.80;;
21168;SDS011;10742;51.816;8.662;2023-08-06T08:31:41;12.73;;;8.07;;
21168;SDS011;10742;51.816;8.662;2023-08-06T08:34:45;5.28;;;3.72;;
21168;SDS011;10742;51.816;8.662;2023-08-06T08:37:48;4.95;;;3.58;;
21168;SDS011;10742;51.816;8.662;2023-08-06T08:40:51;6.05;;;3.53;;
21168;SDS011;10742;51.816;8.662;2023-08-06T08:43:56;5.88;;;3.00;;
21168;SDS011;10742;51.816;8.662;2023-08-06T08:47:00;3.42;;;2.65;;
21168;SDS011;10742;51.816;8.662;2023-08-06T08:50:04;3.65;;;2.70;;
21168;SDS011;10742;51.816;8.662;2023-08-06T08:53:08;5.00;;;2.90;;
21168;SDS011;10742;51.816;8.662;2023-08-06T08:56:12;5.00;;;2.70;;
21168;SDS011;10742;51.816;8.662;2023-08-06T08:59:16;3.35;;;2.55;;
21168;SDS011;10742;51.816;8.662;2023-08-06T09:02:19;6.57;;;2.85;;
21168;SDS011;10742;51.816;8.662;2023-08-06T09:05:23;3.22;;;2.42;;
21168;SDS011;10742;51.816;8.662;2023-08-06T09:08:34;6.45;;;2.53;;
21168;SDS011;10742;51.816;8.662;2023-08-06T09:11:44;7.03;;;2.78;;
21168;SDS011;10742;51.816;8.662;2023-08-06T09:14:46;3.55;;;2.60;;
21168;SDS011;10742;51.816;8.662;2023-08-06T09:17:49;2.67;;;2.35;;
21168;SDS011;10742;51.816;8.662;2023-08-06T09:20:51;28.75;;;6.75;;
21168;SDS011;10742;51.816;8.662;2023-08-06T09:23:54;6.53;;;3.08;;
21168;SDS011;10742;51.816;8.662;2023-08-06T09:26:58;4.47;;;2.95;;
21168;SDS011;10742;51.816;8.662;2023-08-06T09:30:05;4.03;;;2.70;;
21168;SDS011;10742;51.816;8.662;2023-08-06T09:33:09;4.28;;;2.78;;
21168;SDS011;10742;51.816;8.662;2023-08-06T09:36:16;3.10;;;2.15;;
21168;SDS011;10742;51.816;8.662;2023-08-06T09:39:20;4.97;;;2.22;;
21168;SDS011;10742;51.816;8.662;2023-08-06T09:42:29;5.03;;;2.00;;
21168;SDS011;10742;51.816;8.662;2023-08-06T09:45:36;3.03;;;2.13;;
21168;SDS011;10742;51.816;8.662;2023-08-06T09:48:40;4.22;;;2.30;;
21168;SDS011;10742;51.816;8.662;2023-08-06T09:51:43;3.97;;;1.75;;
21168;SDS011;10742;51.816;8.662;2023-08-06T09:54:46;3.83;;;1.80;;
21168;SDS011;10742;51.816;8.662;2023-08-06T09:57:50;3.65;;;2.15;;
21168;SDS011;10742;51.816;8.662;2023-08-06T10:00:53;10.65;;;2.53;;
21168;SDS011;10742;51.816;8.662;2023-08-06T10:03:56;8.77;;;2.30;;
21168;SDS011;10742;51.816;8.662;2023-08-06T10:07:03;2.22;;;1.83;;
21168;SDS011;10742;51.816;8.662;2023-08-06T10:10:06;11.85;;;3.10;;
21168;SDS011;10742;51.816;8.662;2023-08-06T10:13:10;3.67;;;1.90;;
21168;SDS011;10742;51.816;8.662;2023-08-06T10:16:14;7.85;;;2.20;;
21168;SDS011;10742;51.816;8.662;2023-08-06T10:19:17;7.05;;;2.08;;
21168;SDS011;10742;51.816;8.662;2023-08-06T10:22:22;5.00;;;2.10;;
21168;SDS011;10742;51.816;8.662;2023-08-06T10:25:26;2.72;;;1.80;;
21168;SDS011;10742;51.816;8.662;2023-08-06T10:28:38;6.28;;;1.80;;
21168;SDS011;10742;51.816;8.662;2023-08-06T10:31:54;5.30;;;1.50;;
21168;SDS011;10742;51.816;8.662;2023-08-06T10:35:07;4.47;;;1.63;;
21168;SDS011;10742;51.816;8.662;2023-08-06T10:38:48;1.70;;;1.60;;
21168;SDS011;10742;51.816;8.662;2023-08-06T10:41:53;2.30;;;1.85;;
21168;SDS011;10742;51.816;8.662;2023-08-06T10:45:13;2.15;;;1.52;;
21168;SDS011;10742;51.816;8.662;2023-08-06T10:51:38;3.42;;;1.75;;
21168;SDS011;10742;51.816;8.662;2023-08-06T10:54:42;2.83;;;1.52;;
21168;SDS011;10742;51.816;8.662;2023-08-06T10:57:44;2.22;;;1.63;;
21168;SDS011;10742;51.816;8.662;2023-08-06T11:00:47;2.90;;;1.58;;
21168;SDS011;10742;51.816;8.662;2023-08-06T11:03:50;1.45;;;1.35;;
21168;SDS011;10742;51.816;8.662;2023-08-06T11:06:55;2.85;;;1.65;;
21168;SDS011;10742;51.816;8.662;2023-08-06T11:10:02;1.88;;;1.73;;
21168;SDS011;10742;51.816;8.662;2023-08-06T11:13:08;3.65;;;2.00;;
21168;SDS011;10742;51.816;8.662;2023-08-06T11:16:11;2.08;;;1.70;;
21168;SDS011;10742;51.816;8.662;2023-08-06T11:19:19;3.20;;;1.80;;
21168;SDS011;10742;51.816;8.662;2023-08-06T11:22:22;4.20;;;2.05;;
21168;SDS011;10742;51.816;8.662;2023-08-06T11:25:26;3.47;;;1.90;;
21168;SDS011;10742;51.816;8.662;2023-08-06T11:28:34;5.68;;;1.98;;
21168;SDS011;10742;51.816;8.662;2023-08-06T11:31:43;3.55;;;2.08;;
21168;SDS011;10742;51.816;8.662;2023-08-06T11:34:46;4.10;;;2.22;;
21168;SDS011;10742;51.816;8.662;2023-08-06T11:37:48;1.85;;;1.70;;
21168;SDS011;10742;51.816;8.662;2023-08-06T11:40:51;2.65;;;1.80;;
21168;SDS011;10742;51.816;8.662;2023-08-06T11:43:53;4.43;;;2.00;;
21168;SDS011;10742;51.816;8.662;2023-08-06T11:46:56;2.38;;;2.10;;
21168;SDS011;10742;51.816;8.662;2023-08-06T11:49:59;3.33;;;2.47;;
21168;SDS011;10742;51.816;8.662;2023-08-06T11:53:01;7.75;;;2.40;;
21168;SDS011;10742;51.816;8.662;2023-08-06T11:56:05;3.38;;;2.20;;
21168;SDS011;10742;51.816;8.662;2023-08-06T11:59:08;4.72;;;2.30;;
21168;SDS011;10742;51.816;8.662;2023-08-06T12:02:10;2.38;;;2.17;;
21168;SDS011;10742;51.816;8.662;2023-08-06T12:05:14;3.75;;;2.40;;
21168;SDS011;10742;51.816;8.662;2023-08-06T12:08:27;3.60;;;1.90;;
21168;SDS011;10742;51.816;8.662;2023-08-06T12:11:41;2.17;;;2.00;;
21168;SDS011;10742;51.816;8.662;2023-08-06T12:14:43;4.38;;;2.15;;
21168;SDS011;10742;51.816;8.662;2023-08-06T12:17:46;2.53;;;1.77;;
21168;SDS011;10742;51.816;8.662;2023-08-06T12:20:49;3.25;;;1.98;;
21168;SDS011;10742;51.816;8.662;2023-08-06T12:23:52;2.75;;;1.80;;
21168;SDS011;10742;51.816;8.662;2023-08-06T12:26:54;3.03;;;2.15;;
21168;SDS011;10742;51.816;8.662;2023-08-06T12:29:59;2.28;;;1.80;;
21168;SDS011;10742;51.816;8.662;2023-08-06T12:33:02;3.80;;;2.03;;
21168;SDS011;10742;51.816;8.662;2023-08-06T12:36:05;2.85;;;1.88;;
21168;SDS011;10742;51.816;8.662;2023-08-06T12:39:07;3.05;;;1.90;;
21168;SDS011;10742;51.816;8.662;2023-08-06T12:42:10;4.65;;;1.90;;
21168;SDS011;10742;51.816;8.662;2023-08-06T12:45:12;2.58;;;1.80;;
21168;SDS011;10742;51.816;8.662;2023-08-06T12:48:16;2.47;;;1.90;;
21168;SDS011;10742;51.816;8.662;2023-08-06T12:51:18;3.10;;;1.75;;
21168;SDS011;10742;51.816;8.662;2023-08-06T12:54:21;1.83;;;1.70;;
21168;SDS011;10742;51.816;8.662;2023-08-06T12:57:24;2.85;;;1.80;;
21168;SDS011;10742;51.816;8.662;2023-08-06T13:00:29;2.88;;;1.60;;
21168;SDS011;10742;51.816;8.662;2023-08-06T13:03:32;3.83;;;1.77;;
21168;SDS011;10742;51.816;8.662;2023-08-06T13:06:35;2.53;;;1.58;;
21168;SDS011;10742;51.816;8.662;2023-08-06T13:09:39;3.45;;;2.05;;
21168;SDS011;10742;51.816;8.662;2023-08-06T13:12:41;2.92;;;2.05;;
21168;SDS011;10742;51.816;8.662;2023-08-06T13:15:45;3.90;;;1.90;;
21168;SDS011;10742;51.816;8.662;2023-08-06T13:18:47;1.67;;;1.58;;
21168;SDS011;10742;51.816;8.662;2023-08-06T13:24:52;5.43;;;2.03;;
21168;SDS011;10742;51.816;8.662;2023-08-06T13:27:55;2.72;;;1.85;;
21168;SDS011;10742;51.816;8.662;2023-08-06T13:30:57;2.17;;;1.77;;
21168;SDS011;10742;51.816;8.662;2023-08-06T13:34:00;3.55;;;2.03;;
21168;SDS011;10742;51.816;8.662;2023-08-06T13:37:03;2.47;;;1.90;;
21168;SDS011;10742;51.816;8.662;2023-08-06T13:40:06;3.03;;;1.55;;
21168;SDS011;10742;51.816;8.662;2023-08-06T13:43:10;2.30;;;2.05;;
21168;SDS011;10742;51.816;8.662;2023-08-06T13:46:13;3.50;;;1.90;;
21168;SDS011;10742;51.816;8.662;2023-08-06T13:49:18;2.42;;;1.80;;
21168;SDS011;10742;51.816;8.662;2023-08-06T13:52:24;1.73;;;1.60;;
21168;SDS011;10742;51.816;8.662;2023-08-06T13:55:36;2.67;;;1.83;;
21168;SDS011;10742;51.816;8.662;2023-08-06T13:58:38;3.00;;;1.80;;
21168;SDS011;10742;51.816;8.662;2023-08-06T14:01:41;2.95;;;1.52;;
21168;SDS011;10742;51.816;8.662;2023-08-06T14:04:51;2.95;;;1.98;;
21168;SDS011;10742;51.816;8.662;2023-08-06T14:07:55;3.40;;;2.10;;
21168;SDS011;10742;51.816;8.662;2023-08-06T14:10:57;6.32;;;2.55;;
21168;SDS011;10742;51.816;8.662;2023-08-06T14:14:00;5.13;;;2.95;;
21168;SDS011;10742;51.816;8.662;2023-08-06T14:17:04;2.67;;;1.95;;
21168;SDS011;10742;51.816;8.662;2023-08-06T14:20:06;4.88;;;2.40;;
21168;SDS011;10742;51.816;8.662;2023-08-06T14:23:13;6.05;;;3.05;;
21168;SDS011;10742;51.816;8.662;2023-08-06T14:26:16;8.15;;;4.25;;
21168;SDS011;10742;51.816;8.662;2023-08-06T14:29:19;4.43;;;3.90;;
21168;SDS011;10742;51.816;8.662;2023-08-06T14:32:21;51.83;;;20.52;;
21168;SDS011;10742;51.816;8.662;2023-08-06T14:35:24;68.85;;;32.38;;
21168;SDS011;10742;51.816;8.662;2023-08-06T14:38:26;131.32;;;49.17;;
21168;SDS011;10742;51.816;8.662;2023-08-06T14:41:29;333.42;;;103.55;;
21168;SDS011;10742;51.816;8.662;2023-08-06T14:44:31;882.38;;;234.07;;
21168;SDS011;10742;51.816;8.662;2023-08-06T14:47:34;942.45;;;249.45;;
21168;SDS011;10742;51.816;8.662;2023-08-06T14:50:37;1454.68;;;360.15;;
21168;SDS011;10742;51.816;8.662;2023-08-06T14:53:41;1822.78;;;419.58;;
21168;SDS011;10742;51.816;8.662;2023-08-06T14:56:43;1873.32;;;424.98;;
21168;SDS011;10742;51.816;8.662;2023-08-06T14:59:46;1983.60;;;487.70;;
21168;SDS011;10742;51.816;8.662;2023-08-06T15:02:49;1999.90;;;600.67;;
21168;SDS011;10742;51.816;8.662;2023-08-06T15:05:52;1999.90;;;555.35;;
21168;SDS011;10742;51.816;8.662;2023-08-06T15:08:54;1882.50;;;434.17;;
21168;SDS011;10742;51.816;8.662;2023-08-06T15:12:00;1857.25;;;417.45;;
21168;SDS011;10742;51.816;8.662;2023-08-06T15:15:02;822.53;;;233.55;;
21168;SDS011;10742;51.816;8.662;2023-08-06T15:18:05;1935.90;;;450.45;;
21168;SDS011;10742;51.816;8.662;2023-08-06T15:21:08;1786.40;;;407.65;;
21168;SDS011;10742;51.816;8.662;2023-08-06T15:24:11;1999.90;;;604.33;;
21168;SDS011;10742;51.816;8.662;2023-08-06T15:27:13;1999.90;;;511.05;;
21168;SDS011;10742;51.816;8.662;2023-08-06T15:30:16;1999.90;;;564.03;;
21168;SDS011;10742;51.816;8.662;2023-08-06T15:33:18;1999.90;;;565.67;;
21168;SDS011;10742;51.816;8.662;2023-08-06T15:36:21;1999.90;;;612.85;;
21168;SDS011;10742;51.816;8.662;2023-08-06T15:39:23;1999.90;;;619.45;;
21168;SDS011;10742;51.816;8.662;2023-08-06T15:42:26;1999.90;;;652.97;;
21168;SDS011;10742;51.816;8.662;2023-08-06T15:45:28;1999.90;;;657.72;;
21168;SDS011;10742;51.816;8.662;2023-08-06T15:48:31;1999.90;;;562.15;;
21168;SDS011;10742;51.816;8.662;2023-08-06T15:51:34;1994.45;;;506.33;;
21168;SDS011;10742;51.816;8.662;2023-08-06T15:54:38;1876.47;;;442.17;;
21168;SDS011;10742;51.816;8.662;2023-08-06T15:57:40;1830.80;;;420.45;;
21168;SDS011;10742;51.816;8.662;2023-08-06T16:00:44;1914.15;;;441.77;;
21168;SDS011;10742;51.816;8.662;2023-08-06T16:03:47;1914.65;;;449.00;;
21168;SDS011;10742;51.816;8.662;2023-08-06T16:06:49;1999.90;;;495.48;;
21168;SDS011;10742;51.816;8.662;2023-08-06T16:09:52;1999.90;;;557.75;;
21168;SDS011;10742;51.816;8.662;2023-08-06T16:12:55;1990.95;;;493.85;;
21168;SDS011;10742;51.816;8.662;2023-08-06T16:15:58;1849.50;;;438.67;;
21168;SDS011;10742;51.816;8.662;2023-08-06T16:19:01;1999.90;;;541.33;;
21168;SDS011;10742;51.816;8.662;2023-08-06T16:22:04;1968.40;;;465.17;;
21168;SDS011;10742;51.816;8.662;2023-08-06T16:25:08;1898.57;;;428.63;;
21168;SDS011;10742;51.816;8.662;2023-08-06T16:28:13;1492.72;;;355.50;;
21168;SDS011;10742;51.816;8.662;2023-08-06T16:31:16;1735.03;;;408.27;;
21168;SDS011;10742;51.816;8.662;2023-08-06T16:34:19;1049.78;;;283.98;;
21168;SDS011;10742;51.816;8.662;2023-08-06T16:37:22;1776.68;;;409.33;;
21168;SDS011;10742;51.816;8.662;2023-08-06T16:40:24;1792.80;;;429.35;;
21168;SDS011;10742;51.816;8.662;2023-08-06T16:43:27;1845.28;;;446.58;;
21168;SDS011;10742;51.816;8.662;2023-08-06T16:46:30;1963.65;;;492.98;;
21168;SDS011;10742;51.816;8.662;2023-08-06T16:49:33;1470.88;;;381.83;;
21168;SDS011;10742;51.816;8.662;2023-08-06T16:52:35;1883.88;;;430.85;;
21168;SDS011;10742;51.816;8.662;2023-08-06T16:55:39;1999.90;;;503.98;;
21168;SDS011;10742;51.816;8.662;2023-08-06T16:58:41;1999.90;;;552.92;;
21168;SDS011;10742;51.816;8.662;2023-08-06T17:01:44;1999.90;;;546.97;;
21168;SDS011;10742;51.816;8.662;2023-08-06T17:04:47;1955.15;;;464.48;;
21168;SDS011;10742;51.816;8.662;2023-08-06T17:07:50;1999.90;;;890.40;;
21168;SDS011;10742;51.816;8.662;2023-08-06T17:10:54;1999.90;;;994.20;;
21168;SDS011;10742;51.816;8.662;2023-08-06T17:13:57;1999.90;;;886.20;;
21168;SDS011;10742;51.816;8.662;2023-08-06T17:16:59;1999.90;;;962.03;;
21168;SDS011;10742;51.816;8.662;2023-08-06T17:20:02;1999.90;;;945.97;;
21168;SDS011;10742;51.816;8.662;2023-08-06T17:23:05;1999.90;;;640.93;;
21168;SDS011;10742;51.816;8.662;2023-08-06T17:26:07;1999.90;;;620.40;;
21168;SDS011;10742;51.816;8.662;2023-08-06T17:29:10;1999.90;;;890.87;;
21168;SDS011;10742;51.816;8.662;2023-08-06T17:32:13;1999.90;;;677.55;;
21168;SDS011;10742;51.816;8.662;2023-08-06T17:35:16;1999.90;;;697.23;;
21168;SDS011;10742;51.816;8.662;2023-08-06T17:38:18;1999.90;;;748.47;;
21168;SDS011;10742;51.816;8.662;2023-08-06T17:41:21;1999.90;;;954.13;;
21168;SDS011;10742;51.816;8.662;2023-08-06T17:44:23;1999.90;;;796.55;;
21168;SDS011;10742;51.816;8.662;2023-08-06T17:47:28;1999.90;;;910.33;;
21168;SDS011;10742;51.816;8.662;2023-08-06T17:50:37;1999.90;;;825.40;;
21168;SDS011;10742;51.816;8.662;2023-08-06T17:53:40;1999.90;;;829.20;;